sensor_id;sensor_type;location;lat;lon;timestamp;temperature;humidity
52669;DHT22;59898;52.786;6.892;2023-03-01T00:03:04;3.00;99.90
52669;DHT22;59898;52.786;6.892;2023-03-01T00:06:26;3.00;99.90
52669;DHT22;59898;52.786;6.892;2023-03-01T00:09:47;3.00;99.90
52669;DHT22;59898;52.786;6.892;2023-03-01T00:13:07;3.40;99.90
52669;DHT22;59898;52.786;6.892;2023-03-01T00:16:34;3.00;99.90
52669;DHT22;59898;52.786;6.892;2023-03-01T00:19:54;2.80;99.90
52669;DHT22;59898;52.786;6.892;2023-03-01T00:23:15;2.80;99.90
52669;DHT22;59898;52.786;6.892;2023-03-01T00:26:36;2.80;99.90
52669;DHT22;59898;52.786;6.892;2023-03-01T00:29:57;2.80;99.90
52669;DHT22;59898;52.786;6.892;2023-03-01T00:33:18;3.30;99.90
52669;DHT22;59898;52.786;6.892;2023-03-01T00:36:39;2.80;99.90
52669;DHT22;59898;52.786;6.892;2023-03-01T00:40:00;2.70;99.90
52669;DHT22;59898;52.786;6.892;2023-03-01T00:43:21;2.70;99.90
52669;DHT22;59898;52.786;6.892;2023-03-01T00:46:41;3.50;99.90
52669;DHT22;59898;52.786;6.892;2023-03-01T00:50:02;2.70;99.90
52669;DHT22;59898;52.786;6.892;2023-03-01T00:53:23;2.60;99.90
52669;DHT22;59898;52.786;6.892;2023-03-01T00:56:44;2.90;99.90
52669;DHT22;59898;52.786;6.892;2023-03-01T01:00:06;2.70;99.90
52669;DHT22;59898;52.786;6.892;2023-03-01T01:03:27;2.70;99.90
52669;DHT22;59898;52.786;6.892;2023-03-01T01:06:47;2.80;99.90
52669;DHT22;59898;52.786;6.892;2023-03-01T01:10:09;2.70;99.90
52669;DHT22;59898;52.786;6.892;2023-03-01T01:13:33;2.70;99.90
52669;DHT22;59898;52.786;6.892;2023-03-01T01:16:53;2.70;99.90
52669;DHT22;59898;52.786;6.892;2023-03-01T01:20:14;2.70;99.90
52669;DHT22;59898;52.786;6.892;2023-03-01T01:23:36;2.70;99.90
52669;DHT22;59898;52.786;6.892;2023-03-01T01:26:57;1.70;99.90
52669;DHT22;59898;52.786;6.892;2023-03-01T01:30:18;2.70;99.90
52669;DHT22;59898;52.786;6.892;2023-03-01T01:33:39;2.70;99.90
52669;DHT22;59898;52.786;6.892;2023-03-01T01:36:59;2.60;99.90
52669;DHT22;59898;52.786;6.892;2023-03-01T01:40:23;3.10;99.90
52669;DHT22;59898;52.786;6.892;2023-03-01T01:43:46;2.50;99.90
52669;DHT22;59898;52.786;6.892;2023-03-01T01:47:16;2.50;99.90
52669;DHT22;59898;52.786;6.892;2023-03-01T01:50:39;2.50;99.90
52669;DHT22;59898;52.786;6.892;2023-03-01T01:54:01;2.40;99.90
52669;DHT22;59898;52.786;6.892;2023-03-01T01:57:27;2.40;99.90
52669;DHT22;59898;52.786;6.892;2023-03-01T02:00:49;2.30;99.90
52669;DHT22;59898;52.786;6.892;2023-03-01T02:04:10;1.80;99.90
52669;DHT22;59898;52.786;6.892;2023-03-01T02:07:31;1.60;99.90
52669;DHT22;59898;52.786;6.892;2023-03-01T02:10:53;1.60;99.90
52669;DHT22;59898;52.786;6.892;2023-03-01T02:14:15;1.70;99.90
52669;DHT22;59898;52.786;6.892;2023-03-01T02:17:36;2.10;99.90
52669;DHT22;59898;52.786;6.892;2023-03-01T02:24:42;1.90;99.90
52669;DHT22;59898;52.786;6.892;2023-03-01T02:31:38;2.00;99.90
52669;DHT22;59898;52.786;6.892;2023-03-01T02:35:02;3.20;99.90
52669;DHT22;59898;52.786;6.892;2023-03-01T02:38:26;2.00;99.90
52669;DHT22;59898;52.786;6.892;2023-03-01T02:41:51;2.10;99.90
52669;DHT22;59898;52.786;6.892;2023-03-01T02:45:13;2.50;99.90
52669;DHT22;59898;52.786;6.892;2023-03-01T02:48:49;2.10;99.90
52669;DHT22;59898;52.786;6.892;2023-03-01T02:55:53;2.10;99.90
52669;DHT22;59898;52.786;6.892;2023-03-01T02:59:16;2.60;99.90
52669;DHT22;59898;52.786;6.892;2023-03-01T03:02:38;2.10;99.90
52669;DHT22;59898;52.786;6.892;2023-03-01T03:05:58;2.40;99.90
52669;DHT22;59898;52.786;6.892;2023-03-01T03:09:19;2.10;99.90
52669;DHT22;59898;52.786;6.892;2023-03-01T03:12:41;2.00;99.90
52669;DHT22;59898;52.786;6.892;2023-03-01T03:16:02;2.00;99.90
52669;DHT22;59898;52.786;6.892;2023-03-01T03:19:24;2.00;99.90
52669;DHT22;59898;52.786;6.892;2023-03-01T03:22:46;1.90;99.90
52669;DHT22;59898;52.786;6.892;2023-03-01T03:26:07;2.00;99.90
52669;DHT22;59898;52.786;6.892;2023-03-01T03:29:28;2.20;99.90
52669;DHT22;59898;52.786;6.892;2023-03-01T03:32:48;2.00;99.90
52669;DHT22;59898;52.786;6.892;2023-03-01T03:36:20;1.60;99.90
52669;DHT22;59898;52.786;6.892;2023-03-01T03:39:41;1.60;99.90
52669;DHT22;59898;52.786;6.892;2023-03-01T03:43:07;1.50;99.90
52669;DHT22;59898;52.786;6.892;2023-03-01T03:46:29;1.40;99.90
52669;DHT22;59898;52.786;6.892;2023-03-01T03:49:49;2.30;99.90
52669;DHT22;59898;52.786;6.892;2023-03-01T03:53:11;2.00;99.90
52669;DHT22;59898;52.786;6.892;2023-03-01T03:56:32;1.00;99.90
52669;DHT22;59898;52.786;6.892;2023-03-01T03:59:53;0.80;99.90
52669;DHT22;59898;52.786;6.892;2023-03-01T04:03:15;0.80;99.90
52669;DHT22;59898;52.786;6.892;2023-03-01T04:06:36;2.00;99.90
52669;DHT22;59898;52.786;6.892;2023-03-01T04:09:57;1.30;99.90
52669;DHT22;59898;52.786;6.892;2023-03-01T04:13:20;1.40;99.90
52669;DHT22;59898;52.786;6.892;2023-03-01T04:16:41;1.10;99.90
52669;DHT22;59898;52.786;6.892;2023-03-01T04:20:02;0.80;99.90
52669;DHT22;59898;52.786;6.892;2023-03-01T04:23:26;0.60;99.90
52669;DHT22;59898;52.786;6.892;2023-03-01T04:26:46;2.00;99.90
52669;DHT22;59898;52.786;6.892;2023-03-01T04:30:08;1.00;99.90
52669;DHT22;59898;52.786;6.892;2023-03-01T04:33:29;0.90;99.90
52669;DHT22;59898;52.786;6.892;2023-03-01T04:36:49;1.00;99.90
52669;DHT22;59898;52.786;6.892;2023-03-01T04:40:10;1.10;99.90
52669;DHT22;59898;52.786;6.892;2023-03-01T04:43:36;1.20;99.90
52669;DHT22;59898;52.786;6.892;2023-03-01T04:46:57;1.30;99.90
52669;DHT22;59898;52.786;6.892;2023-03-01T04:50:18;1.40;99.90
52669;DHT22;59898;52.786;6.892;2023-03-01T04:53:41;1.30;99.90
52669;DHT22;59898;52.786;6.892;2023-03-01T04:57:03;1.10;99.90
52669;DHT22;59898;52.786;6.892;2023-03-01T05:00:23;1.00;99.90
52669;DHT22;59898;52.786;6.892;2023-03-01T05:03:49;0.90;99.90
52669;DHT22;59898;52.786;6.892;2023-03-01T05:07:10;0.80;99.90
52669;DHT22;59898;52.786;6.892;2023-03-01T05:10:35;0.70;99.90
52669;DHT22;59898;52.786;6.892;2023-03-01T05:13:56;1.10;99.90
52669;DHT22;59898;52.786;6.892;2023-03-01T05:17:17;1.50;99.90
52669;DHT22;59898;52.786;6.892;2023-03-01T05:20:38;2.30;99.90
52669;DHT22;59898;52.786;6.892;2023-03-01T05:23:58;1.40;99.90
52669;DHT22;59898;52.786;6.892;2023-03-01T05:27:19;1.00;99.90
52669;DHT22;59898;52.786;6.892;2023-03-01T05:30:42;1.10;99.90
52669;DHT22;59898;52.786;6.892;2023-03-01T05:34:03;1.10;99.90
52669;DHT22;59898;52.786;6.892;2023-03-01T05:37:25;1.70;99.90
52669;DHT22;59898;52.786;6.892;2023-03-01T05:40:47;0.90;99.90
52669;DHT22;59898;52.786;6.892;2023-03-01T05:44:08;0.80;99.90
52669;DHT22;59898;52.786;6.892;2023-03-01T05:47:28;0.60;99.90
52669;DHT22;59898;52.786;6.892;2023-03-01T05:50:49;1.40;99.90
52669;DHT22;59898;52.786;6.892;2023-03-01T05:54:10;0.30;99.90
52669;DHT22;59898;52.786;6.892;2023-03-01T05:57:30;0.20;99.90
52669;DHT22;59898;52.786;6.892;2023-03-01T06:00:51;0.20;99.90
52669;DHT22;59898;52.786;6.892;2023-03-01T06:04:12;0.20;99.90
52669;DHT22;59898;52.786;6.892;2023-03-01T06:07:32;0.10;99.90
52669;DHT22;59898;52.786;6.892;2023-03-01T06:10:53;0.00;99.90
52669;DHT22;59898;52.786;6.892;2023-03-01T06:14:14;2.00;99.90
52669;DHT22;59898;52.786;6.892;2023-03-01T06:17:36;0.30;99.90
52669;DHT22;59898;52.786;6.892;2023-03-01T06:20:57;-0.10;99.90
52669;DHT22;59898;52.786;6.892;2023-03-01T06:24:18;0.50;99.90
52669;DHT22;59898;52.786;6.892;2023-03-01T06:27:39;0.30;99.90
52669;DHT22;59898;52.786;6.892;2023-03-01T06:31:00;1.20;99.90
52669;DHT22;59898;52.786;6.892;2023-03-01T06:34:21;0.40;99.90
52669;DHT22;59898;52.786;6.892;2023-03-01T06:37:42;0.40;99.90
52669;DHT22;59898;52.786;6.892;2023-03-01T06:41:02;-0.30;99.90
52669;DHT22;59898;52.786;6.892;2023-03-01T06:44:23;0.00;99.90
52669;DHT22;59898;52.786;6.892;2023-03-01T06:47:44;1.10;99.90
52669;DHT22;59898;52.786;6.892;2023-03-01T06:51:05;0.50;99.90
52669;DHT22;59898;52.786;6.892;2023-03-01T06:54:26;1.60;99.90
52669;DHT22;59898;52.786;6.892;2023-03-01T06:57:46;1.60;99.90
52669;DHT22;59898;52.786;6.892;2023-03-01T07:01:08;2.30;99.90
52669;DHT22;59898;52.786;6.892;2023-03-01T07:04:29;3.40;99.90
52669;DHT22;59898;52.786;6.892;2023-03-01T07:07:50;4.50;99.90
52669;DHT22;59898;52.786;6.892;2023-03-01T07:11:11;5.80;99.90
52669;DHT22;59898;52.786;6.892;2023-03-01T07:14:32;7.00;99.90
52669;DHT22;59898;52.786;6.892;2023-03-01T07:17:53;8.20;99.90
52669;DHT22;59898;52.786;6.892;2023-03-01T07:21:14;9.20;99.90
52669;DHT22;59898;52.786;6.892;2023-03-01T07:24:35;10.30;99.90
52669;DHT22;59898;52.786;6.892;2023-03-01T07:27:55;11.20;99.90
52669;DHT22;59898;52.786;6.892;2023-03-01T07:31:16;12.00;99.90
52669;DHT22;59898;52.786;6.892;2023-03-01T07:34:37;12.50;99.80
52669;DHT22;59898;52.786;6.892;2023-03-01T07:37:57;12.20;99.50
52669;DHT22;59898;52.786;6.892;2023-03-01T07:41:18;11.30;98.90
52669;DHT22;59898;52.786;6.892;2023-03-01T07:44:39;9.90;99.80
52669;DHT22;59898;52.786;6.892;2023-03-01T07:47:59;8.60;99.90
52669;DHT22;59898;52.786;6.892;2023-03-01T07:51:20;7.40;99.90
52669;DHT22;59898;52.786;6.892;2023-03-01T07:54:43;6.70;99.90
52669;DHT22;59898;52.786;6.892;2023-03-01T07:58:04;6.10;99.90
52669;DHT22;59898;52.786;6.892;2023-03-01T08:01:25;5.90;99.90
52669;DHT22;59898;52.786;6.892;2023-03-01T08:04:46;5.60;99.90
52669;DHT22;59898;52.786;6.892;2023-03-01T08:08:06;5.50;99.90
52669;DHT22;59898;52.786;6.892;2023-03-01T08:11:27;5.60;99.90
52669;DHT22;59898;52.786;6.892;2023-03-01T08:14:49;5.80;99.90
52669;DHT22;59898;52.786;6.892;2023-03-01T08:18:09;6.10;99.90
52669;DHT22;59898;52.786;6.892;2023-03-01T08:21:30;6.40;99.90
52669;DHT22;59898;52.786;6.892;2023-03-01T08:24:51;6.90;99.90
52669;DHT22;59898;52.786;6.892;2023-03-01T08:28:11;7.60;99.90
52669;DHT22;59898;52.786;6.892;2023-03-01T08:31:39;8.50;99.90
52669;DHT22;59898;52.786;6.892;2023-03-01T08:34:59;8.90;99.90
52669;DHT22;59898;52.786;6.892;2023-03-01T08:38:20;9.30;99.90
52669;DHT22;59898;52.786;6.892;2023-03-01T08:41:41;10.00;99.90
52669;DHT22;59898;52.786;6.892;2023-03-01T08:45:06;10.40;99.90
52669;DHT22;59898;52.786;6.892;2023-03-01T08:48:28;10.50;99.90
52669;DHT22;59898;52.786;6.892;2023-03-01T08:51:49;10.60;99.90
52669;DHT22;59898;52.786;6.892;2023-03-01T08:55:09;11.00;99.60
52669;DHT22;59898;52.786;6.892;2023-03-01T08:58:30;11.80;98.80
52669;DHT22;59898;52.786;6.892;2023-03-01T09:01:51;12.30;97.30
52669;DHT22;59898;52.786;6.892;2023-03-01T09:05:12;11.90;96.20
52669;DHT22;59898;52.786;6.892;2023-03-01T09:08:35;11.30;95.30
52669;DHT22;59898;52.786;6.892;2023-03-01T09:11:56;10.80;95.30
52669;DHT22;59898;52.786;6.892;2023-03-01T09:15:17;10.50;95.00
52669;DHT22;59898;52.786;6.892;2023-03-01T09:18:38;10.30;94.80
52669;DHT22;59898;52.786;6.892;2023-03-01T09:21:58;10.00;94.80
52669;DHT22;59898;52.786;6.892;2023-03-01T09:25:19;10.00;94.70
52669;DHT22;59898;52.786;6.892;2023-03-01T09:28:40;9.80;94.10
52669;DHT22;59898;52.786;6.892;2023-03-01T09:32:04;9.80;94.50
52669;DHT22;59898;52.786;6.892;2023-03-01T09:35:25;9.80;93.90
52669;DHT22;59898;52.786;6.892;2023-03-01T09:38:46;9.60;93.60
52669;DHT22;59898;52.786;6.892;2023-03-01T09:42:12;9.60;93.30
52669;DHT22;59898;52.786;6.892;2023-03-01T09:45:35;9.70;93.30
52669;DHT22;59898;52.786;6.892;2023-03-01T09:48:59;9.70;92.90
52669;DHT22;59898;52.786;6.892;2023-03-01T09:52:28;9.60;92.40
52669;DHT22;59898;52.786;6.892;2023-03-01T09:56:04;9.60;92.60
52669;DHT22;59898;52.786;6.892;2023-03-01T10:06:22;9.30;92.00
52669;DHT22;59898;52.786;6.892;2023-03-01T10:09:46;9.30;91.80
52669;DHT22;59898;52.786;6.892;2023-03-01T10:13:16;9.40;92.10
52669;DHT22;59898;52.786;6.892;2023-03-01T10:16:58;9.40;92.10
52669;DHT22;59898;52.786;6.892;2023-03-01T10:20:26;9.40;91.50
52669;DHT22;59898;52.786;6.892;2023-03-01T10:23:50;9.40;92.40
52669;DHT22;59898;52.786;6.892;2023-03-01T10:30:51;9.70;92.40
52669;DHT22;59898;52.786;6.892;2023-03-01T10:41:19;9.90;91.90
52669;DHT22;59898;52.786;6.892;2023-03-01T10:44:48;9.90;92.60
52669;DHT22;59898;52.786;6.892;2023-03-01T10:48:18;10.10;92.20
52669;DHT22;59898;52.786;6.892;2023-03-01T10:51:41;10.00;92.60
52669;DHT22;59898;52.786;6.892;2023-03-01T10:58:38;10.30;93.00
52669;DHT22;59898;52.786;6.892;2023-03-01T11:02:24;10.30;92.60
52669;DHT22;59898;52.786;6.892;2023-03-01T11:05:56;10.40;92.10
52669;DHT22;59898;52.786;6.892;2023-03-01T11:09:22;10.70;92.70
52669;DHT22;59898;52.786;6.892;2023-03-01T11:12:43;10.90;92.00
52669;DHT22;59898;52.786;6.892;2023-03-01T11:16:07;10.70;91.40
52669;DHT22;59898;52.786;6.892;2023-03-01T11:19:30;10.60;91.70
52669;DHT22;59898;52.786;6.892;2023-03-01T11:22:53;10.50;91.40
52669;DHT22;59898;52.786;6.892;2023-03-01T11:26:15;10.30;91.20
52669;DHT22;59898;52.786;6.892;2023-03-01T11:29:44;10.10;91.70
52669;DHT22;59898;52.786;6.892;2023-03-01T11:33:21;10.30;92.00
52669;DHT22;59898;52.786;6.892;2023-03-01T11:36:50;10.50;91.00
52669;DHT22;59898;52.786;6.892;2023-03-01T11:40:25;10.20;91.10
52669;DHT22;59898;52.786;6.892;2023-03-01T11:44:00;10.10;91.60
52669;DHT22;59898;52.786;6.892;2023-03-01T11:47:51;9.90;91.60
52669;DHT22;59898;52.786;6.892;2023-03-01T11:51:33;10.00;92.00
52669;DHT22;59898;52.786;6.892;2023-03-01T12:02:37;10.30;91.40
52669;DHT22;59898;52.786;6.892;2023-03-01T12:06:20;10.20;91.50
52669;DHT22;59898;52.786;6.892;2023-03-01T12:25:05;11.10;91.40
52669;DHT22;59898;52.786;6.892;2023-03-01T12:46:47;11.70;90.70
52669;DHT22;59898;52.786;6.892;2023-03-01T12:50:25;11.50;90.40
52669;DHT22;59898;52.786;6.892;2023-03-01T12:53:51;11.30;89.30
52669;DHT22;59898;52.786;6.892;2023-03-01T12:57:25;11.10;90.50
52669;DHT22;59898;52.786;6.892;2023-03-01T13:01:05;11.10;90.20
52669;DHT22;59898;52.786;6.892;2023-03-01T13:11:53;10.80;90.50
52669;DHT22;59898;52.786;6.892;2023-03-01T13:18:44;10.90;90.40
52669;DHT22;59898;52.786;6.892;2023-03-01T13:22:37;10.70;90.60
52669;DHT22;59898;52.786;6.892;2023-03-01T13:29:26;10.40;91.30
52669;DHT22;59898;52.786;6.892;2023-03-01T13:32:47;10.60;91.30
52669;DHT22;59898;52.786;6.892;2023-03-01T13:36:09;10.60;91.30
52669;DHT22;59898;52.786;6.892;2023-03-01T13:39:39;10.60;91.30
52669;DHT22;59898;52.786;6.892;2023-03-01T13:43:31;10.70;91.10
52669;DHT22;59898;52.786;6.892;2023-03-01T13:47:03;10.90;91.30
52669;DHT22;59898;52.786;6.892;2023-03-01T13:50:28;11.00;91.50
52669;DHT22;59898;52.786;6.892;2023-03-01T13:53:49;11.00;91.20
52669;DHT22;59898;52.786;6.892;2023-03-01T13:57:20;10.90;91.50
52669;DHT22;59898;52.786;6.892;2023-03-01T14:00:42;10.80;91.70
52669;DHT22;59898;52.786;6.892;2023-03-01T14:04:17;10.60;91.70
52669;DHT22;59898;52.786;6.892;2023-03-01T14:07:38;10.50;91.70
52669;DHT22;59898;52.786;6.892;2023-03-01T14:18:47;10.20;91.60
52669;DHT22;59898;52.786;6.892;2023-03-01T14:22:24;10.10;92.20
52669;DHT22;59898;52.786;6.892;2023-03-01T14:25:59;10.10;92.50
52669;DHT22;59898;52.786;6.892;2023-03-01T14:29:35;10.10;92.50
52669;DHT22;59898;52.786;6.892;2023-03-01T14:33:04;10.20;92.40
52669;DHT22;59898;52.786;6.892;2023-03-01T14:36:29;10.20;92.40
52669;DHT22;59898;52.786;6.892;2023-03-01T14:39:50;10.40;93.30
52669;DHT22;59898;52.786;6.892;2023-03-01T14:43:17;10.50;92.80
52669;DHT22;59898;52.786;6.892;2023-03-01T14:46:43;10.60;92.10
52669;DHT22;59898;52.786;6.892;2023-03-01T14:50:27;10.40;92.20
52669;DHT22;59898;52.786;6.892;2023-03-01T14:53:48;10.20;92.30
52669;DHT22;59898;52.786;6.892;2023-03-01T14:57:21;10.10;92.70
52669;DHT22;59898;52.786;6.892;2023-03-01T15:00:49;10.00;92.90
52669;DHT22;59898;52.786;6.892;2023-03-01T15:04:12;10.10;93.00
52669;DHT22;59898;52.786;6.892;2023-03-01T15:07:35;10.10;92.90
52669;DHT22;59898;52.786;6.892;2023-03-01T15:14:44;10.00;92.90
52669;DHT22;59898;52.786;6.892;2023-03-01T15:18:21;9.80;93.10
52669;DHT22;59898;52.786;6.892;2023-03-01T15:21:44;9.80;92.90
52669;DHT22;59898;52.786;6.892;2023-03-01T15:25:15;9.70;93.00
52669;DHT22;59898;52.786;6.892;2023-03-01T15:28:42;9.70;92.70
52669;DHT22;59898;52.786;6.892;2023-03-01T15:32:31;9.70;93.00
52669;DHT22;59898;52.786;6.892;2023-03-01T15:35:53;9.70;93.30
52669;DHT22;59898;52.786;6.892;2023-03-01T15:40:01;9.70;93.30
52669;DHT22;59898;52.786;6.892;2023-03-01T15:43:45;9.70;93.60
52669;DHT22;59898;52.786;6.892;2023-03-01T15:47:28;9.70;93.90
52669;DHT22;59898;52.786;6.892;2023-03-01T15:50:59;9.60;94.40
52669;DHT22;59898;52.786;6.892;2023-03-01T15:54:22;9.60;94.50
52669;DHT22;59898;52.786;6.892;2023-03-01T15:57:44;9.50;94.70
52669;DHT22;59898;52.786;6.892;2023-03-01T16:01:12;9.40;95.20
52669;DHT22;59898;52.786;6.892;2023-03-01T16:04:33;9.40;95.40
52669;DHT22;59898;52.786;6.892;2023-03-01T16:07:54;9.40;95.70
52669;DHT22;59898;52.786;6.892;2023-03-01T16:11:17;9.50;95.70
52669;DHT22;59898;52.786;6.892;2023-03-01T16:14:38;9.40;96.00
52669;DHT22;59898;52.786;6.892;2023-03-01T16:17:58;9.40;96.20
52669;DHT22;59898;52.786;6.892;2023-03-01T16:21:24;9.40;96.20
52669;DHT22;59898;52.786;6.892;2023-03-01T16:24:45;9.30;96.20
52669;DHT22;59898;52.786;6.892;2023-03-01T16:28:06;9.20;96.20
52669;DHT22;59898;52.786;6.892;2023-03-01T16:31:29;9.10;96.40
52669;DHT22;59898;52.786;6.892;2023-03-01T16:34:49;9.00;96.90
52669;DHT22;59898;52.786;6.892;2023-03-01T16:38:10;9.00;96.60
52669;DHT22;59898;52.786;6.892;2023-03-01T16:41:31;8.90;96.60
52669;DHT22;59898;52.786;6.892;2023-03-01T16:44:55;8.80;96.90
52669;DHT22;59898;52.786;6.892;2023-03-01T16:48:17;8.60;97.30
52669;DHT22;59898;52.786;6.892;2023-03-01T16:51:38;8.50;97.50
52669;DHT22;59898;52.786;6.892;2023-03-01T16:54:59;8.40;97.80
52669;DHT22;59898;52.786;6.892;2023-03-01T16:58:19;8.30;98.20
52669;DHT22;59898;52.786;6.892;2023-03-01T17:01:40;8.10;98.50
52669;DHT22;59898;52.786;6.892;2023-03-01T17:05:01;8.10;98.70
52669;DHT22;59898;52.786;6.892;2023-03-01T17:08:23;8.00;98.90
52669;DHT22;59898;52.786;6.892;2023-03-01T17:11:43;7.90;99.40
52669;DHT22;59898;52.786;6.892;2023-03-01T17:15:05;7.80;99.60
52669;DHT22;59898;52.786;6.892;2023-03-01T17:18:27;7.80;99.90
52669;DHT22;59898;52.786;6.892;2023-03-01T17:21:47;7.60;99.90
52669;DHT22;59898;52.786;6.892;2023-03-01T17:25:09;7.60;99.90
52669;DHT22;59898;52.786;6.892;2023-03-01T17:28:33;7.50;99.90
52669;DHT22;59898;52.786;6.892;2023-03-01T17:31:54;7.40;99.90
52669;DHT22;59898;52.786;6.892;2023-03-01T17:35:16;7.30;99.90
52669;DHT22;59898;52.786;6.892;2023-03-01T17:38:36;7.30;99.90
52669;DHT22;59898;52.786;6.892;2023-03-01T17:41:57;7.20;99.90
52669;DHT22;59898;52.786;6.892;2023-03-01T17:45:18;7.10;99.90
52669;DHT22;59898;52.786;6.892;2023-03-01T17:48:38;7.10;99.90
52669;DHT22;59898;52.786;6.892;2023-03-01T17:51:59;6.90;99.90
52669;DHT22;59898;52.786;6.892;2023-03-01T17:55:20;6.90;99.90
52669;DHT22;59898;52.786;6.892;2023-03-01T17:58:41;6.90;99.90
52669;DHT22;59898;52.786;6.892;2023-03-01T18:02:02;6.80;99.90
52669;DHT22;59898;52.786;6.892;2023-03-01T18:05:23;6.70;99.90
52669;DHT22;59898;52.786;6.892;2023-03-01T18:08:45;6.70;99.90
52669;DHT22;59898;52.786;6.892;2023-03-01T18:12:06;6.70;99.90
52669;DHT22;59898;52.786;6.892;2023-03-01T18:15:27;6.60;99.90
52669;DHT22;59898;52.786;6.892;2023-03-01T18:18:52;6.70;99.90
52669;DHT22;59898;52.786;6.892;2023-03-01T18:22:14;6.50;99.90
52669;DHT22;59898;52.786;6.892;2023-03-01T18:25:38;6.40;99.90
52669;DHT22;59898;52.786;6.892;2023-03-01T18:28:59;6.40;99.90
52669;DHT22;59898;52.786;6.892;2023-03-01T18:32:23;6.30;99.90
52669;DHT22;59898;52.786;6.892;2023-03-01T18:35:44;6.20;99.90
52669;DHT22;59898;52.786;6.892;2023-03-01T18:39:06;6.20;99.90
52669;DHT22;59898;52.786;6.892;2023-03-01T18:42:27;6.10;99.90
52669;DHT22;59898;52.786;6.892;2023-03-01T18:45:47;5.90;99.90
52669;DHT22;59898;52.786;6.892;2023-03-01T18:49:09;6.50;99.90
52669;DHT22;59898;52.786;6.892;2023-03-01T18:52:30;5.80;99.90
52669;DHT22;59898;52.786;6.892;2023-03-01T18:55:51;5.80;99.90
52669;DHT22;59898;52.786;6.892;2023-03-01T18:59:11;5.80;99.90
52669;DHT22;59898;52.786;6.892;2023-03-01T19:02:32;5.70;99.90
52669;DHT22;59898;52.786;6.892;2023-03-01T19:05:53;5.60;99.90
52669;DHT22;59898;52.786;6.892;2023-03-01T19:09:14;5.50;99.90
52669;DHT22;59898;52.786;6.892;2023-03-01T19:12:35;5.50;99.90
52669;DHT22;59898;52.786;6.892;2023-03-01T19:16:05;5.50;99.90
52669;DHT22;59898;52.786;6.892;2023-03-01T19:19:26;5.40;99.90
52669;DHT22;59898;52.786;6.892;2023-03-01T19:22:46;5.30;99.90
52669;DHT22;59898;52.786;6.892;2023-03-01T19:26:10;5.20;99.90
52669;DHT22;59898;52.786;6.892;2023-03-01T19:29:31;5.20;99.90
52669;DHT22;59898;52.786;6.892;2023-03-01T19:32:53;5.10;99.90
52669;DHT22;59898;52.786;6.892;2023-03-01T19:36:14;5.10;99.90
52669;DHT22;59898;52.786;6.892;2023-03-01T19:39:35;5.10;99.90
52669;DHT22;59898;52.786;6.892;2023-03-01T19:42:56;5.10;99.90
52669;DHT22;59898;52.786;6.892;2023-03-01T19:46:17;5.50;99.90
52669;DHT22;59898;52.786;6.892;2023-03-01T19:49:37;5.10;99.90
52669;DHT22;59898;52.786;6.892;2023-03-01T19:52:58;5.00;99.90
52669;DHT22;59898;52.786;6.892;2023-03-01T19:56:19;5.00;99.90
52669;DHT22;59898;52.786;6.892;2023-03-01T19:59:40;4.80;99.90
52669;DHT22;59898;52.786;6.892;2023-03-01T20:03:00;4.70;99.90
52669;DHT22;59898;52.786;6.892;2023-03-01T20:06:22;4.50;99.90
52669;DHT22;59898;52.786;6.892;2023-03-01T20:09:42;4.40;99.90
52669;DHT22;59898;52.786;6.892;2023-03-01T20:13:05;4.30;99.90
52669;DHT22;59898;52.786;6.892;2023-03-01T20:16:25;4.10;99.90
52669;DHT22;59898;52.786;6.892;2023-03-01T20:19:46;4.00;99.90
52669;DHT22;59898;52.786;6.892;2023-03-01T20:23:07;3.90;99.90
52669;DHT22;59898;52.786;6.892;2023-03-01T20:26:28;3.80;99.90
52669;DHT22;59898;52.786;6.892;2023-03-01T20:29:49;3.70;99.90
52669;DHT22;59898;52.786;6.892;2023-03-01T20:33:09;3.70;99.90
52669;DHT22;59898;52.786;6.892;2023-03-01T20:36:30;3.60;99.90
52669;DHT22;59898;52.786;6.892;2023-03-01T20:39:51;3.60;99.90
52669;DHT22;59898;52.786;6.892;2023-03-01T20:43:12;3.60;99.90
52669;DHT22;59898;52.786;6.892;2023-03-01T20:46:33;3.70;99.90
52669;DHT22;59898;52.786;6.892;2023-03-01T20:49:54;3.70;99.90
52669;DHT22;59898;52.786;6.892;2023-03-01T20:53:18;3.80;99.90
52669;DHT22;59898;52.786;6.892;2023-03-01T20:56:38;3.70;99.90
52669;DHT22;59898;52.786;6.892;2023-03-01T20:59:59;3.70;99.90
52669;DHT22;59898;52.786;6.892;2023-03-01T21:03:20;4.30;99.90
52669;DHT22;59898;52.786;6.892;2023-03-01T21:06:41;3.80;99.90
52669;DHT22;59898;52.786;6.892;2023-03-01T21:10:02;3.80;99.90
52669;DHT22;59898;52.786;6.892;2023-03-01T21:13:24;3.90;99.90
52669;DHT22;59898;52.786;6.892;2023-03-01T21:16:45;3.90;99.90
52669;DHT22;59898;52.786;6.892;2023-03-01T21:20:06;3.90;99.90
52669;DHT22;59898;52.786;6.892;2023-03-01T21:23:28;3.90;99.90
52669;DHT22;59898;52.786;6.892;2023-03-01T21:26:49;4.00;99.90
52669;DHT22;59898;52.786;6.892;2023-03-01T21:30:10;4.40;99.90
52669;DHT22;59898;52.786;6.892;2023-03-01T21:33:31;4.00;99.90
52669;DHT22;59898;52.786;6.892;2023-03-01T21:36:52;4.10;99.90
52669;DHT22;59898;52.786;6.892;2023-03-01T21:40:13;3.90;99.90
52669;DHT22;59898;52.786;6.892;2023-03-01T21:43:35;4.00;99.90
52669;DHT22;59898;52.786;6.892;2023-03-01T21:46:56;4.00;99.90
52669;DHT22;59898;52.786;6.892;2023-03-01T21:50:18;4.10;99.90
52669;DHT22;59898;52.786;6.892;2023-03-01T21:53:39;4.20;99.90
52669;DHT22;59898;52.786;6.892;2023-03-01T21:56:59;4.10;99.90
52669;DHT22;59898;52.786;6.892;2023-03-01T22:00:20;4.20;99.90
52669;DHT22;59898;52.786;6.892;2023-03-01T22:03:43;4.20;99.90
52669;DHT22;59898;52.786;6.892;2023-03-01T22:07:04;4.20;99.90
52669;DHT22;59898;52.786;6.892;2023-03-01T22:10:25;4.30;99.90
52669;DHT22;59898;52.786;6.892;2023-03-01T22:13:49;4.30;99.90
52669;DHT22;59898;52.786;6.892;2023-03-01T22:17:11;4.30;99.90
52669;DHT22;59898;52.786;6.892;2023-03-01T22:20:33;4.30;99.90
52669;DHT22;59898;52.786;6.892;2023-03-01T22:23:55;4.20;99.90
52669;DHT22;59898;52.786;6.892;2023-03-01T22:27:15;4.50;99.90
52669;DHT22;59898;52.786;6.892;2023-03-01T22:30:36;4.30;99.90
52669;DHT22;59898;52.786;6.892;2023-03-01T22:33:57;4.20;99.90
52669;DHT22;59898;52.786;6.892;2023-03-01T22:37:19;4.10;99.90
52669;DHT22;59898;52.786;6.892;2023-03-01T22:40:41;4.70;99.90
52669;DHT22;59898;52.786;6.892;2023-03-01T22:44:02;3.90;99.90
52669;DHT22;59898;52.786;6.892;2023-03-01T22:47:23;4.10;99.90
52669;DHT22;59898;52.786;6.892;2023-03-01T22:50:44;4.00;99.90
52669;DHT22;59898;52.786;6.892;2023-03-01T22:54:07;4.00;99.90
52669;DHT22;59898;52.786;6.892;2023-03-01T22:57:28;3.90;99.90
52669;DHT22;59898;52.786;6.892;2023-03-01T23:00:49;3.90;99.90
52669;DHT22;59898;52.786;6.892;2023-03-01T23:04:10;3.80;99.90
52669;DHT22;59898;52.786;6.892;2023-03-01T23:07:32;3.80;99.90
52669;DHT22;59898;52.786;6.892;2023-03-01T23:10:53;3.80;99.90
52669;DHT22;59898;52.786;6.892;2023-03-01T23:14:13;3.80;99.90
52669;DHT22;59898;52.786;6.892;2023-03-01T23:17:35;3.70;99.90
52669;DHT22;59898;52.786;6.892;2023-03-01T23:20:56;3.70;99.90